Stella Polaris — PEBD — position and weather

sailwx.info

Track history (hours):
 
Tides and Currents Weather Stations Pressure Air Temp Water Temp Dewpoint Dewpoint Depression Visibility Wind Speed Wind Dir Waves Ship Positions

Stella Polaris

Last reported at 2016-Feb-09 15:21 UTC. Time now 2016-Feb-09 22:37 UTC.
Position N 55°36' E 015°19'.

Length 117 m; draft 4.9 m.

Type: Tanker. MMSI: 245911000.

Date/timePositionNaut miles runAvg speedWind from/ knotsBaromVisibWave heightAir tempDewpointWater temp
2016-Feb-09 15:21N 55°36' E 015°19'1013.0
2016-Feb-09 14:33N 55°31' E 015°03'1313.4
2016-Feb-09 13:33N 55°24' E 014°43'1313.2
2016-Feb-09 12:33N 55°15' E 014°26'1212.0
2016-Feb-09 11:33N 55°10' E 014°07'1313.1
2016-Feb-09 10:33N 55°11' E 013°44'2612.8
2016-Feb-09 08:32N 55°13' E 012°59'1313.2
2016-Feb-09 07:33N 55°18' E 012°38'1212.1
2016-Feb-09 06:33N 55°30' E 012°43'1212.0
2016-Feb-09 05:33N 55°39' E 012°57'2 2.3
2016-Feb-09 04:32N 55°38' E 013°01'0 0.0
2016-Feb-09 03:32N 55°38' E 013°01'0 0.0
2016-Feb-09 02:08N 55°38' E 013°01'0 0.0
2016-Feb-09 01:26N 55°38' E 013°01'0 0.0
2016-Feb-09 00:32N 55°38' E 013°01'0 0.0
2016-Feb-08 23:32N 55°38' E 013°01'0 0.0
2016-Feb-08 22:29N 55°38' E 013°01'0 0.0
2016-Feb-08 21:23N 55°38' E 013°01'0 0.1
2016-Feb-08 20:33N 55°38' E 013°01'4 4.0
2016-Feb-08 19:33N 55°41' E 012°57'0 0.0
2016-Feb-08 18:28N 55°41' E 012°57'0 0.0
2016-Feb-08 17:28N 55°41' E 012°57'0 0.0
2016-Feb-08 16:31N 55°41' E 012°57'3 3.6
2016-Feb-08 15:34N 55°44' E 012°52'1110.8
2016-Feb-08 14:33N 55°53' E 012°44'1110.6
2016-Feb-08 13:33N 56°04' E 012°38'9 8.7
2016-Feb-08 12:32N 56°09' E 012°26'3310.8
2016-Feb-08 09:29N 56°37' E 011°55'1010.7
2016-Feb-08 08:33N 56°47' E 011°51'1110.8
2016-Feb-08 07:34N 56°57' E 011°44'1110.9
2016-Feb-08 06:33N 57°07' E 011°37'1111.2
2016-Feb-08 05:33N 57°18' E 011°30'1111.3
2016-Feb-08 04:34N 57°28' E 011°23'1111.4
2016-Feb-08 03:34N 57°36' E 011°07'1211.5
2016-Feb-08 02:33N 57°44' E 010°52'1211.5
2016-Feb-08 01:31N 57°47' E 010°30'2713.7
2016-Feb-07 23:33N 57°38' E 009°43'1413.7
2016-Feb-07 22:33N 57°31' E 009°21'41212.5
2016-Feb-06 13:32N 51°34' E 003°24'1212.1
2016-Feb-06 12:33N 51°25' E 003°37'9 9.4
2016-Feb-06 11:33N 51°20' E 003°49'3 3.2
2016-Feb-06 10:34N 51°17' E 003°50'5 4.4
2016-Feb-06 09:32N 51°12' E 003°48'0 0.0
2016-Feb-06 08:23N 51°12' E 003°48'0 0.0
2016-Feb-06 07:23N 51°12' E 003°48'0 0.0
2016-Feb-06 06:32N 51°12' E 003°48'0 0.0
2016-Feb-06 05:32N 51°12' E 003°48'0 0.0
2016-Feb-06 04:32N 51°12' E 003°48'0 0.0
2016-Feb-06 03:33N 51°12' E 003°48'0 0.0
2016-Feb-06 02:33N 51°12' E 003°48'0 0.0
2016-Feb-06 01:33N 51°12' E 003°48'0 0.0
2016-Feb-06 00:30N 51°12' E 003°48'0 0.0
2016-Feb-05 23:33N 51°12' E 003°48'0 0.0
2016-Feb-05 22:30N 51°12' E 003°48'0 0.0
2016-Feb-05 21:30N 51°12' E 003°48'0 0.0
2016-Feb-05 20:24N 51°12' E 003°48'0 0.0
2016-Feb-05 19:27N 51°12' E 003°48'0 0.0
2016-Feb-05 18:33N 51°12' E 003°48'0 0.0
2016-Feb-05 17:33N 51°12' E 003°48'0 0.0
2016-Feb-05 16:33N 51°12' E 003°48'0 0.0
2016-Feb-05 15:33N 51°12' E 003°48'0 0.0
2016-Feb-05 14:33N 51°12' E 003°48'0 0.0
2016-Feb-05 13:33N 51°12' E 003°48'0 0.0
2016-Feb-05 12:33N 51°12' E 003°48'0 0.0
2016-Feb-05 11:33N 51°12' E 003°48'0 0.0
2016-Feb-05 10:33N 51°12' E 003°48'0 0.0
2016-Feb-05 09:24N 51°12' E 003°48'0 0.0
2016-Feb-05 08:33N 51°12' E 003°48'0 0.0
2016-Feb-05 07:33N 51°12' E 003°48'0 0.0
2016-Feb-05 06:30N 51°12' E 003°48'0 0.0
2016-Feb-05 05:33N 51°12' E 003°48'0 0.0
2016-Feb-05 04:25N 51°12' E 003°48'0 0.0
2016-Feb-05 03:31N 51°12' E 003°48'0 0.0
2016-Feb-05 02:28N 51°12' E 003°48'0 0.0
2016-Feb-05 01:31N 51°12' E 003°48'0 0.0
2016-Feb-05 00:31N 51°12' E 003°48'0 0.0
2016-Feb-04 23:13N 51°12' E 003°48'0 0.0
2016-Feb-04 22:25N 51°12' E 003°48'0 0.0
2016-Feb-04 21:28N 51°12' E 003°48'0 0.0
2016-Feb-04 20:31N 51°12' E 003°48'0 0.0
2016-Feb-04 19:31N 51°12' E 003°48'0 0.0
2016-Feb-04 18:31N 51°12' E 003°48'0 0.0
2016-Feb-04 17:31N 51°12' E 003°48'0 0.0
2016-Feb-04 16:31N 51°12' E 003°48'0 0.0
2016-Feb-04 15:29N 51°12' E 003°48'0 0.0
2016-Feb-04 14:32N 51°12' E 003°48'0 0.0
2016-Feb-04 13:32N 51°12' E 003°48'0 0.0
2016-Feb-04 12:17N 51°12' E 003°48'0 0.0
2016-Feb-04 11:29N 51°12' E 003°48'0 0.0
2016-Feb-04 10:23N 51°12' E 003°48'0 0.0
2016-Feb-04 09:32N 51°12' E 003°48'0 0.0
2016-Feb-04 08:32N 51°12' E 003°48'0 0.0
2016-Feb-04 07:32N 51°12' E 003°48'0 0.0
2016-Feb-04 06:30N 51°12' E 003°48'3 2.9
2016-Feb-04 05:33N 51°15' E 003°49'5 4.8
2016-Feb-04 04:33N 51°20' E 003°49'1 0.8
2016-Feb-04 03:34N 51°21' E 003°49'7 6.7
2016-Feb-04 02:34N 51°25' E 003°42'9 8.5
2016-Feb-04 01:33N 51°29' E 003°29'1110.9
2016-Feb-04 00:31N 51°39' E 003°20'26 0.5
2016-Feb-02 00:05N 52°03' E 003°39'610.8
2016-Feb-01 23:33N 52°02' E 003°48'1010.2
2016-Feb-01 22:33N 51°59' E 004°04'1010.5
2016-Feb-01 21:34N 51°54' E 004°18'8 7.8
2016-Feb-01 20:33N 51°50' E 004°29'6 5.9
2016-Feb-01 19:33N 51°47' E 004°38'0 0.0
2016-Feb-01 18:33N 51°47' E 004°38'0 0.0
2016-Feb-01 17:33N 51°47' E 004°38'0 0.0
2016-Feb-01 16:33N 51°47' E 004°38'0 0.0
2016-Feb-01 15:33N 51°47' E 004°38'0 0.0
2016-Feb-01 14:33N 51°47' E 004°38'0 0.0
2016-Feb-01 13:33N 51°47' E 004°38'0 0.0
2016-Feb-01 12:33N 51°47' E 004°38'0 0.0
2016-Feb-01 11:33N 51°47' E 004°38'0 0.0
2016-Feb-01 10:33N 51°47' E 004°38'0 0.0
2016-Feb-01 09:33N 51°47' E 004°38'0 0.0
2016-Feb-01 08:33N 51°47' E 004°38'0 0.0
2016-Feb-01 07:33N 51°47' E 004°38'4 4.0
2016-Feb-01 06:33N 51°50' E 004°33'9 8.6
2016-Feb-01 05:33N 51°53' E 004°20'1010.1
2016-Feb-01 04:33N 51°59' E 004°06'1312.5
2016-Feb-01 03:32N 52°01' E 003°46'  
Track history (hours):
 
Tides and Currents Weather Stations Pressure Air Temp Water Temp Dewpoint Dewpoint Depression Visibility Wind Speed Wind Dir Waves Ship Positions

Stella Polaris

Last reported at 2016-Feb-09 15:21 UTC. Time now 2016-Feb-09 22:37 UTC.
Position N 55°36' E 015°19'.

Length 117 m; draft 4.9 m.

Type: Tanker. MMSI: 245911000.

Date/timePositionNaut miles runAvg speedWind from/ knotsBaromVisibWave heightAir tempDewpointWater temp
2016-Feb-09 15:21N 55°36' E 015°19'1013.0
2016-Feb-09 14:33N 55°31' E 015°03'1313.4
2016-Feb-09 13:33N 55°24' E 014°43'1313.2
2016-Feb-09 12:33N 55°15' E 014°26'1212.0
2016-Feb-09 11:33N 55°10' E 014°07'1313.1
2016-Feb-09 10:33N 55°11' E 013°44'2612.8
2016-Feb-09 08:32N 55°13' E 012°59'1313.2
2016-Feb-09 07:33N 55°18' E 012°38'1212.1
2016-Feb-09 06:33N 55°30' E 012°43'1212.0
2016-Feb-09 05:33N 55°39' E 012°57'2 2.3
2016-Feb-09 04:32N 55°38' E 013°01'0 0.0
2016-Feb-09 03:32N 55°38' E 013°01'0 0.0
2016-Feb-09 02:08N 55°38' E 013°01'0 0.0
2016-Feb-09 01:26N 55°38' E 013°01'0 0.0
2016-Feb-09 00:32N 55°38' E 013°01'0 0.0
2016-Feb-08 23:32N 55°38' E 013°01'0 0.0
2016-Feb-08 22:29N 55°38' E 013°01'0 0.0
2016-Feb-08 21:23N 55°38' E 013°01'0 0.1
2016-Feb-08 20:33N 55°38' E 013°01'4 4.0
2016-Feb-08 19:33N 55°41' E 012°57'0 0.0
2016-Feb-08 18:28N 55°41' E 012°57'0 0.0
2016-Feb-08 17:28N 55°41' E 012°57'0 0.0
2016-Feb-08 16:31N 55°41' E 012°57'3 3.6
2016-Feb-08 15:34N 55°44' E 012°52'1110.8
2016-Feb-08 14:33N 55°53' E 012°44'1110.6
2016-Feb-08 13:33N 56°04' E 012°38'9 8.7
2016-Feb-08 12:32N 56°09' E 012°26'3310.8
2016-Feb-08 09:29N 56°37' E 011°55'1010.7
2016-Feb-08 08:33N 56°47' E 011°51'1110.8
2016-Feb-08 07:34N 56°57' E 011°44'1110.9
2016-Feb-08 06:33N 57°07' E 011°37'1111.2
2016-Feb-08 05:33N 57°18' E 011°30'1111.3
2016-Feb-08 04:34N 57°28' E 011°23'1111.4
2016-Feb-08 03:34N 57°36' E 011°07'1211.5
2016-Feb-08 02:33N 57°44' E 010°52'1211.5
2016-Feb-08 01:31N 57°47' E 010°30'2713.7
2016-Feb-07 23:33N 57°38' E 009°43'1413.7
2016-Feb-07 22:33N 57°31' E 009°21'41212.5
2016-Feb-06 13:32N 51°34' E 003°24'1212.1
2016-Feb-06 12:33N 51°25' E 003°37'9 9.4
2016-Feb-06 11:33N 51°20' E 003°49'3 3.2
2016-Feb-06 10:34N 51°17' E 003°50'5 4.4
2016-Feb-06 09:32N 51°12' E 003°48'0 0.0
2016-Feb-06 08:23N 51°12' E 003°48'0 0.0
2016-Feb-06 07:23N 51°12' E 003°48'0 0.0
2016-Feb-06 06:32N 51°12' E 003°48'0 0.0
2016-Feb-06 05:32N 51°12' E 003°48'0 0.0
2016-Feb-06 04:32N 51°12' E 003°48'0 0.0
2016-Feb-06 03:33N 51°12' E 003°48'0 0.0
2016-Feb-06 02:33N 51°12' E 003°48'0 0.0
2016-Feb-06 01:33N 51°12' E 003°48'0 0.0
2016-Feb-06 00:30N 51°12' E 003°48'0 0.0
2016-Feb-05 23:33N 51°12' E 003°48'0 0.0
2016-Feb-05 22:30N 51°12' E 003°48'0 0.0
2016-Feb-05 21:30N 51°12' E 003°48'0 0.0
2016-Feb-05 20:24N 51°12' E 003°48'0 0.0
2016-Feb-05 19:27N 51°12' E 003°48'0 0.0
2016-Feb-05 18:33N 51°12' E 003°48'0 0.0
2016-Feb-05 17:33N 51°12' E 003°48'0 0.0
2016-Feb-05 16:33N 51°12' E 003°48'0 0.0
2016-Feb-05 15:33N 51°12' E 003°48'0 0.0
2016-Feb-05 14:33N 51°12' E 003°48'0 0.0
2016-Feb-05 13:33N 51°12' E 003°48'0 0.0
2016-Feb-05 12:33N 51°12' E 003°48'0 0.0
2016-Feb-05 11:33N 51°12' E 003°48'0 0.0
2016-Feb-05 10:33N 51°12' E 003°48'0 0.0
2016-Feb-05 09:24N 51°12' E 003°48'0 0.0
2016-Feb-05 08:33N 51°12' E 003°48'0 0.0
2016-Feb-05 07:33N 51°12' E 003°48'0 0.0
2016-Feb-05 06:30N 51°12' E 003°48'0 0.0
2016-Feb-05 05:33N 51°12' E 003°48'0 0.0
2016-Feb-05 04:25N 51°12' E 003°48'0 0.0
2016-Feb-05 03:31N 51°12' E 003°48'0 0.0
2016-Feb-05 02:28N 51°12' E 003°48'0 0.0
2016-Feb-05 01:31N 51°12' E 003°48'0 0.0
2016-Feb-05 00:31N 51°12' E 003°48'0 0.0
2016-Feb-04 23:13N 51°12' E 003°48'0 0.0
2016-Feb-04 22:25N 51°12' E 003°48'0 0.0
2016-Feb-04 21:28N 51°12' E 003°48'0 0.0
2016-Feb-04 20:31N 51°12' E 003°48'0 0.0
2016-Feb-04 19:31N 51°12' E 003°48'0 0.0
2016-Feb-04 18:31N 51°12' E 003°48'0 0.0
2016-Feb-04 17:31N 51°12' E 003°48'0 0.0
2016-Feb-04 16:31N 51°12' E 003°48'0 0.0
2016-Feb-04 15:29N 51°12' E 003°48'0 0.0
2016-Feb-04 14:32N 51°12' E 003°48'0 0.0
2016-Feb-04 13:32N 51°12' E 003°48'0 0.0
2016-Feb-04 12:17N 51°12' E 003°48'0 0.0
2016-Feb-04 11:29N 51°12' E 003°48'0 0.0
2016-Feb-04 10:23N 51°12' E 003°48'0 0.0
2016-Feb-04 09:32N 51°12' E 003°48'0 0.0
2016-Feb-04 08:32N 51°12' E 003°48'0 0.0
2016-Feb-04 07:32N 51°12' E 003°48'0 0.0
2016-Feb-04 06:30N 51°12' E 003°48'3 2.9
2016-Feb-04 05:33N 51°15' E 003°49'5 4.8
2016-Feb-04 04:33N 51°20' E 003°49'1 0.8
2016-Feb-04 03:34N 51°21' E 003°49'7 6.7
2016-Feb-04 02:34N 51°25' E 003°42'9 8.5
2016-Feb-04 01:33N 51°29' E 003°29'1110.9
2016-Feb-04 00:31N 51°39' E 003°20'26 0.5
2016-Feb-02 00:05N 52°03' E 003°39'610.8
2016-Feb-01 23:33N 52°02' E 003°48'1010.2
2016-Feb-01 22:33N 51°59' E 004°04'1010.5
2016-Feb-01 21:34N 51°54' E 004°18'8 7.8
2016-Feb-01 20:33N 51°50' E 004°29'6 5.9
2016-Feb-01 19:33N 51°47' E 004°38'0 0.0
2016-Feb-01 18:33N 51°47' E 004°38'0 0.0
2016-Feb-01 17:33N 51°47' E 004°38'0 0.0
2016-Feb-01 16:33N 51°47' E 004°38'0 0.0
2016-Feb-01 15:33N 51°47' E 004°38'0 0.0
2016-Feb-01 14:33N 51°47' E 004°38'0 0.0
2016-Feb-01 13:33N 51°47' E 004°38'0 0.0
2016-Feb-01 12:33N 51°47' E 004°38'0 0.0
2016-Feb-01 11:33N 51°47' E 004°38'0 0.0
2016-Feb-01 10:33N 51°47' E 004°38'0 0.0
2016-Feb-01 09:33N 51°47' E 004°38'0 0.0
2016-Feb-01 08:33N 51°47' E 004°38'0 0.0
2016-Feb-01 07:33N 51°47' E 004°38'4 4.0
2016-Feb-01 06:33N 51°50' E 004°33'9 8.6
2016-Feb-01 05:33N 51°53' E 004°20'1010.1
2016-Feb-01 04:33N 51°59' E 004°06'1312.5
2016-Feb-01 03:32N 52°01' E 003°46'  

Dump ship's entire track history